sensor_id;sensor_type;location;lat;lon;timestamp;P1;durP1;ratioP1;P2;durP2;ratioP2
50821;SDS011;36794;51.212;6.980;2022-11-20T00:00:56;18.10;;;11.57;;
50821;SDS011;36794;51.212;6.980;2022-11-20T00:03:22;20.53;;;11.97;;
50821;SDS011;36794;51.212;6.980;2022-11-20T00:05:48;18.73;;;12.37;;
50821;SDS011;36794;51.212;6.980;2022-11-20T00:08:14;18.47;;;11.87;;
50821;SDS011;36794;51.212;6.980;2022-11-20T00:10:40;22.40;;;12.77;;
50821;SDS011;36794;51.212;6.980;2022-11-20T00:13:06;20.00;;;12.43;;
50821;SDS011;36794;51.212;6.980;2022-11-20T00:15:32;21.10;;;13.03;;
50821;SDS011;36794;51.212;6.980;2022-11-20T00:17:58;19.37;;;12.73;;
50821;SDS011;36794;51.212;6.980;2022-11-20T00:20:24;22.10;;;12.80;;
50821;SDS011;36794;51.212;6.980;2022-11-20T00:22:50;22.33;;;12.63;;
50821;SDS011;36794;51.212;6.980;2022-11-20T00:25:16;22.50;;;13.00;;
50821;SDS011;36794;51.212;6.980;2022-11-20T00:27:42;22.07;;;13.37;;
50821;SDS011;36794;51.212;6.980;2022-11-20T00:30:08;23.07;;;13.13;;
50821;SDS011;36794;51.212;6.980;2022-11-20T00:32:34;20.60;;;13.10;;
50821;SDS011;36794;51.212;6.980;2022-11-20T00:35:00;23.77;;;14.07;;
50821;SDS011;36794;51.212;6.980;2022-11-20T00:37:26;21.63;;;14.13;;
50821;SDS011;36794;51.212;6.980;2022-11-20T00:39:52;24.00;;;14.30;;
50821;SDS011;36794;51.212;6.980;2022-11-20T00:42:18;24.33;;;14.37;;
50821;SDS011;36794;51.212;6.980;2022-11-20T00:44:44;25.77;;;14.00;;
50821;SDS011;36794;51.212;6.980;2022-11-20T00:47:10;23.30;;;14.20;;
50821;SDS011;36794;51.212;6.980;2022-11-20T00:49:36;22.03;;;13.53;;
50821;SDS011;36794;51.212;6.980;2022-11-20T00:52:02;19.27;;;12.27;;
50821;SDS011;36794;51.212;6.980;2022-11-20T00:54:28;22.17;;;14.20;;
50821;SDS011;36794;51.212;6.980;2022-11-20T00:56:53;20.70;;;13.50;;
50821;SDS011;36794;51.212;6.980;2022-11-20T00:59:20;20.47;;;13.10;;
50821;SDS011;36794;51.212;6.980;2022-11-20T01:01:46;22.20;;;13.80;;
50821;SDS011;36794;51.212;6.980;2022-11-20T01:04:11;21.97;;;13.73;;
50821;SDS011;36794;51.212;6.980;2022-11-20T01:06:38;24.13;;;13.93;;
50821;SDS011;36794;51.212;6.980;2022-11-20T01:09:09;22.30;;;14.30;;
50821;SDS011;36794;51.212;6.980;2022-11-20T01:11:37;24.67;;;14.13;;
50821;SDS011;36794;51.212;6.980;2022-11-20T01:14:04;24.93;;;14.63;;
50821;SDS011;36794;51.212;6.980;2022-11-20T01:16:32;25.23;;;14.93;;
50821;SDS011;36794;51.212;6.980;2022-11-20T01:18:59;26.10;;;14.93;;
50821;SDS011;36794;51.212;6.980;2022-11-20T01:21:26;23.43;;;14.77;;
50821;SDS011;36794;51.212;6.980;2022-11-20T01:23:53;24.93;;;15.53;;
50821;SDS011;36794;51.212;6.980;2022-11-20T01:26:20;27.83;;;16.10;;
50821;SDS011;36794;51.212;6.980;2022-11-20T01:28:46;25.60;;;16.03;;
50821;SDS011;36794;51.212;6.980;2022-11-20T01:33:42;27.23;;;17.40;;
50821;SDS011;36794;51.212;6.980;2022-11-20T01:36:08;23.50;;;14.83;;
50821;SDS011;36794;51.212;6.980;2022-11-20T01:38:34;23.70;;;15.53;;
50821;SDS011;36794;51.212;6.980;2022-11-20T01:41:00;27.73;;;17.17;;
50821;SDS011;36794;51.212;6.980;2022-11-20T01:43:26;28.20;;;16.50;;
50821;SDS011;36794;51.212;6.980;2022-11-20T01:46:04;24.90;;;16.23;;
50821;SDS011;36794;51.212;6.980;2022-11-20T01:48:35;27.67;;;16.80;;
50821;SDS011;36794;51.212;6.980;2022-11-20T01:51:03;24.73;;;15.90;;
50821;SDS011;36794;51.212;6.980;2022-11-20T01:53:31;27.37;;;16.60;;
50821;SDS011;36794;51.212;6.980;2022-11-20T01:55:58;29.50;;;16.47;;
50821;SDS011;36794;51.212;6.980;2022-11-20T01:58:27;27.67;;;16.40;;
50821;SDS011;36794;51.212;6.980;2022-11-20T02:00:54;26.33;;;15.27;;
50821;SDS011;36794;51.212;6.980;2022-11-20T02:03:20;27.53;;;15.80;;
50821;SDS011;36794;51.212;6.980;2022-11-20T02:05:48;26.43;;;15.73;;
50821;SDS011;36794;51.212;6.980;2022-11-20T02:08:15;26.77;;;16.77;;
50821;SDS011;36794;51.212;6.980;2022-11-20T02:10:42;24.80;;;16.10;;
50821;SDS011;36794;51.212;6.980;2022-11-20T02:13:08;27.77;;;16.00;;
50821;SDS011;36794;51.212;6.980;2022-11-20T02:15:52;23.98;;;14.57;;
50821;SDS011;36794;51.212;6.980;2022-11-20T02:18:19;25.40;;;14.87;;
50821;SDS011;36794;51.212;6.980;2022-11-20T02:20:46;25.63;;;15.17;;
50821;SDS011;36794;51.212;6.980;2022-11-20T02:23:20;23.97;;;15.63;;
50821;SDS011;36794;51.212;6.980;2022-11-20T02:25:49;25.87;;;15.77;;
50821;SDS011;36794;51.212;6.980;2022-11-20T02:28:15;26.03;;;16.07;;
50821;SDS011;36794;51.212;6.980;2022-11-20T02:30:42;25.73;;;15.47;;
50821;SDS011;36794;51.212;6.980;2022-11-20T02:33:08;24.57;;;15.70;;
50821;SDS011;36794;51.212;6.980;2022-11-20T02:38:01;26.03;;;15.67;;
50821;SDS011;36794;51.212;6.980;2022-11-20T02:40:28;22.53;;;14.83;;
50821;SDS011;36794;51.212;6.980;2022-11-20T02:42:54;25.83;;;15.33;;
50821;SDS011;36794;51.212;6.980;2022-11-20T02:45:20;25.97;;;15.83;;
50821;SDS011;36794;51.212;6.980;2022-11-20T02:47:47;28.20;;;15.83;;
50821;SDS011;36794;51.212;6.980;2022-11-20T02:50:13;24.53;;;15.67;;
50821;SDS011;36794;51.212;6.980;2022-11-20T02:52:39;28.20;;;14.87;;
50821;SDS011;36794;51.212;6.980;2022-11-20T02:55:05;26.27;;;16.53;;
50821;SDS011;36794;51.212;6.980;2022-11-20T02:57:31;26.87;;;15.77;;
50821;SDS011;36794;51.212;6.980;2022-11-20T02:59:57;26.67;;;16.73;;
50821;SDS011;36794;51.212;6.980;2022-11-20T03:02:23;24.83;;;14.93;;
50821;SDS011;36794;51.212;6.980;2022-11-20T03:04:49;26.57;;;16.40;;
50821;SDS011;36794;51.212;6.980;2022-11-20T03:07:15;24.47;;;15.63;;
50821;SDS011;36794;51.212;6.980;2022-11-20T03:09:41;25.10;;;16.77;;
50821;SDS011;36794;51.212;6.980;2022-11-20T03:12:07;27.47;;;15.87;;
50821;SDS011;36794;51.212;6.980;2022-11-20T03:14:34;28.90;;;16.83;;
50821;SDS011;36794;51.212;6.980;2022-11-20T03:17:00;26.30;;;16.47;;
50821;SDS011;36794;51.212;6.980;2022-11-20T03:19:26;26.93;;;16.63;;
50821;SDS011;36794;51.212;6.980;2022-11-20T03:21:52;26.83;;;16.07;;
50821;SDS011;36794;51.212;6.980;2022-11-20T03:24:17;27.17;;;16.47;;
50821;SDS011;36794;51.212;6.980;2022-11-20T03:26:43;26.77;;;16.90;;
50821;SDS011;36794;51.212;6.980;2022-11-20T03:29:09;26.03;;;15.80;;
50821;SDS011;36794;51.212;6.980;2022-11-20T03:31:36;25.17;;;15.70;;
50821;SDS011;36794;51.212;6.980;2022-11-20T03:34:03;28.23;;;15.10;;
50821;SDS011;36794;51.212;6.980;2022-11-20T03:36:29;24.70;;;15.57;;
50821;SDS011;36794;51.212;6.980;2022-11-20T03:38:56;25.23;;;16.00;;
50821;SDS011;36794;51.212;6.980;2022-11-20T03:41:23;26.33;;;16.30;;
50821;SDS011;36794;51.212;6.980;2022-11-20T03:43:59;26.77;;;16.10;;
50821;SDS011;36794;51.212;6.980;2022-11-20T03:46:26;26.70;;;16.03;;
50821;SDS011;36794;51.212;6.980;2022-11-20T03:48:52;25.97;;;16.73;;
50821;SDS011;36794;51.212;6.980;2022-11-20T03:51:20;27.63;;;16.87;;
50821;SDS011;36794;51.212;6.980;2022-11-20T03:53:46;30.60;;;17.20;;
50821;SDS011;36794;51.212;6.980;2022-11-20T03:56:13;28.07;;;15.87;;
50821;SDS011;36794;51.212;6.980;2022-11-20T03:58:40;25.57;;;16.37;;
50821;SDS011;36794;51.212;6.980;2022-11-20T04:03:32;24.30;;;15.20;;
50821;SDS011;36794;51.212;6.980;2022-11-20T04:06:05;26.77;;;15.63;;
50821;SDS011;36794;51.212;6.980;2022-11-20T04:08:31;24.53;;;15.47;;
50821;SDS011;36794;51.212;6.980;2022-11-20T04:11:07;22.93;;;14.53;;
50821;SDS011;36794;51.212;6.980;2022-11-20T04:13:33;25.63;;;16.03;;
50821;SDS011;36794;51.212;6.980;2022-11-20T04:15:59;24.93;;;15.83;;
50821;SDS011;36794;51.212;6.980;2022-11-20T04:18:25;24.60;;;15.57;;
50821;SDS011;36794;51.212;6.980;2022-11-20T04:20:51;26.10;;;15.53;;
50821;SDS011;36794;51.212;6.980;2022-11-20T04:23:17;27.40;;;15.73;;
50821;SDS011;36794;51.212;6.980;2022-11-20T04:25:42;25.07;;;15.60;;
50821;SDS011;36794;51.212;6.980;2022-11-20T04:28:08;26.27;;;16.27;;
50821;SDS011;36794;51.212;6.980;2022-11-20T04:30:34;26.00;;;16.27;;
50821;SDS011;36794;51.212;6.980;2022-11-20T04:33:00;23.30;;;14.93;;
50821;SDS011;36794;51.212;6.980;2022-11-20T04:35:26;23.17;;;15.03;;
50821;SDS011;36794;51.212;6.980;2022-11-20T04:37:52;27.57;;;15.47;;
50821;SDS011;36794;51.212;6.980;2022-11-20T04:40:18;26.27;;;15.57;;
50821;SDS011;36794;51.212;6.980;2022-11-20T04:42:44;29.03;;;15.83;;
50821;SDS011;36794;51.212;6.980;2022-11-20T04:45:10;28.10;;;15.93;;
50821;SDS011;36794;51.212;6.980;2022-11-20T04:47:36;24.77;;;15.63;;
50821;SDS011;36794;51.212;6.980;2022-11-20T04:50:02;24.10;;;14.77;;
50821;SDS011;36794;51.212;6.980;2022-11-20T04:52:28;24.47;;;15.10;;
50821;SDS011;36794;51.212;6.980;2022-11-20T04:54:54;24.93;;;15.10;;
50821;SDS011;36794;51.212;6.980;2022-11-20T04:57:20;25.03;;;15.13;;
50821;SDS011;36794;51.212;6.980;2022-11-20T04:59:46;23.90;;;14.83;;
50821;SDS011;36794;51.212;6.980;2022-11-20T05:02:12;23.93;;;14.90;;
50821;SDS011;36794;51.212;6.980;2022-11-20T05:04:38;22.13;;;14.20;;
50821;SDS011;36794;51.212;6.980;2022-11-20T05:07:04;23.93;;;15.23;;
50821;SDS011;36794;51.212;6.980;2022-11-20T05:09:30;22.57;;;14.17;;
50821;SDS011;36794;51.212;6.980;2022-11-20T05:11:56;23.93;;;15.10;;
50821;SDS011;36794;51.212;6.980;2022-11-20T05:14:22;25.57;;;15.47;;
50821;SDS011;36794;51.212;6.980;2022-11-20T05:16:48;25.60;;;15.83;;
50821;SDS011;36794;51.212;6.980;2022-11-20T05:19:14;25.33;;;15.73;;
50821;SDS011;36794;51.212;6.980;2022-11-20T05:21:40;22.30;;;14.57;;
50821;SDS011;36794;51.212;6.980;2022-11-20T05:24:06;22.40;;;14.27;;
50821;SDS011;36794;51.212;6.980;2022-11-20T05:26:31;23.83;;;14.87;;
50821;SDS011;36794;51.212;6.980;2022-11-20T05:28:57;23.73;;;14.73;;
50821;SDS011;36794;51.212;6.980;2022-11-20T05:31:24;24.23;;;15.20;;
50821;SDS011;36794;51.212;6.980;2022-11-20T05:33:50;23.47;;;15.67;;
50821;SDS011;36794;51.212;6.980;2022-11-20T05:36:17;22.50;;;14.60;;
50821;SDS011;36794;51.212;6.980;2022-11-20T05:38:43;24.23;;;15.10;;
50821;SDS011;36794;51.212;6.980;2022-11-20T05:41:16;24.50;;;15.10;;
50821;SDS011;36794;51.212;6.980;2022-11-20T05:43:43;24.97;;;15.20;;
50821;SDS011;36794;51.212;6.980;2022-11-20T05:46:10;24.03;;;14.50;;
50821;SDS011;36794;51.212;6.980;2022-11-20T05:48:37;22.40;;;14.53;;
50821;SDS011;36794;51.212;6.980;2022-11-20T05:51:04;23.30;;;14.43;;
50821;SDS011;36794;51.212;6.980;2022-11-20T05:53:30;24.40;;;14.93;;
50821;SDS011;36794;51.212;6.980;2022-11-20T05:55:58;22.10;;;14.50;;
50821;SDS011;36794;51.212;6.980;2022-11-20T05:58:24;22.13;;;14.17;;
50821;SDS011;36794;51.212;6.980;2022-11-20T06:00:50;24.13;;;14.60;;
50821;SDS011;36794;51.212;6.980;2022-11-20T06:03:16;26.90;;;15.03;;
50821;SDS011;36794;51.212;6.980;2022-11-20T06:05:42;24.20;;;14.70;;
50821;SDS011;36794;51.212;6.980;2022-11-20T06:08:08;27.47;;;15.20;;
50821;SDS011;36794;51.212;6.980;2022-11-20T06:10:34;23.40;;;15.23;;
50821;SDS011;36794;51.212;6.980;2022-11-20T06:13:00;25.03;;;15.70;;
50821;SDS011;36794;51.212;6.980;2022-11-20T06:15:26;23.40;;;14.70;;
50821;SDS011;36794;51.212;6.980;2022-11-20T06:17:52;25.23;;;14.60;;
50821;SDS011;36794;51.212;6.980;2022-11-20T06:20:18;24.93;;;14.17;;
50821;SDS011;36794;51.212;6.980;2022-11-20T06:22:44;22.70;;;14.40;;
50821;SDS011;36794;51.212;6.980;2022-11-20T06:25:10;23.37;;;14.67;;
50821;SDS011;36794;51.212;6.980;2022-11-20T06:27:36;25.03;;;15.03;;
50821;SDS011;36794;51.212;6.980;2022-11-20T06:30:03;22.57;;;14.47;;
50821;SDS011;36794;51.212;6.980;2022-11-20T06:32:29;23.90;;;14.97;;
50821;SDS011;36794;51.212;6.980;2022-11-20T06:34:54;25.87;;;15.57;;
50821;SDS011;36794;51.212;6.980;2022-11-20T06:37:20;25.23;;;15.47;;
50821;SDS011;36794;51.212;6.980;2022-11-20T06:39:46;24.63;;;15.13;;
50821;SDS011;36794;51.212;6.980;2022-11-20T06:42:12;25.73;;;15.77;;
50821;SDS011;36794;51.212;6.980;2022-11-20T06:44:38;22.83;;;14.73;;
50821;SDS011;36794;51.212;6.980;2022-11-20T06:47:04;25.97;;;16.17;;
50821;SDS011;36794;51.212;6.980;2022-11-20T06:49:30;25.63;;;16.10;;
50821;SDS011;36794;51.212;6.980;2022-11-20T06:51:56;25.47;;;15.00;;
50821;SDS011;36794;51.212;6.980;2022-11-20T06:54:22;29.27;;;16.27;;
50821;SDS011;36794;51.212;6.980;2022-11-20T06:56:48;22.63;;;14.97;;
50821;SDS011;36794;51.212;6.980;2022-11-20T06:59:14;22.37;;;14.97;;
50821;SDS011;36794;51.212;6.980;2022-11-20T07:01:40;25.70;;;16.27;;
50821;SDS011;36794;51.212;6.980;2022-11-20T07:04:06;25.63;;;15.23;;
50821;SDS011;36794;51.212;6.980;2022-11-20T07:06:32;25.60;;;16.13;;
50821;SDS011;36794;51.212;6.980;2022-11-20T07:08:58;25.83;;;15.37;;
50821;SDS011;36794;51.212;6.980;2022-11-20T07:11:24;27.57;;;15.37;;
50821;SDS011;36794;51.212;6.980;2022-11-20T07:13:50;25.07;;;15.53;;
50821;SDS011;36794;51.212;6.980;2022-11-20T07:16:16;25.27;;;15.63;;
50821;SDS011;36794;51.212;6.980;2022-11-20T07:18:42;26.67;;;15.27;;
50821;SDS011;36794;51.212;6.980;2022-11-20T07:21:08;26.57;;;16.07;;
50821;SDS011;36794;51.212;6.980;2022-11-20T07:23:35;27.10;;;15.20;;
50821;SDS011;36794;51.212;6.980;2022-11-20T07:26:08;24.60;;;14.97;;
50821;SDS011;36794;51.212;6.980;2022-11-20T07:28:34;24.13;;;14.50;;
50821;SDS011;36794;51.212;6.980;2022-11-20T07:31:01;25.23;;;14.83;;
50821;SDS011;36794;51.212;6.980;2022-11-20T07:33:27;22.00;;;14.03;;
50821;SDS011;36794;51.212;6.980;2022-11-20T07:35:53;24.97;;;14.93;;
50821;SDS011;36794;51.212;6.980;2022-11-20T07:38:19;24.73;;;15.40;;
50821;SDS011;36794;51.212;6.980;2022-11-20T07:40:45;25.70;;;15.43;;
50821;SDS011;36794;51.212;6.980;2022-11-20T07:43:11;27.00;;;16.10;;
50821;SDS011;36794;51.212;6.980;2022-11-20T07:45:37;25.73;;;15.63;;
50821;SDS011;36794;51.212;6.980;2022-11-20T07:48:03;29.07;;;15.90;;
50821;SDS011;36794;51.212;6.980;2022-11-20T07:50:29;24.70;;;15.47;;
50821;SDS011;36794;51.212;6.980;2022-11-20T07:53:02;23.23;;;13.90;;
50821;SDS011;36794;51.212;6.980;2022-11-20T07:55:28;22.43;;;13.30;;
50821;SDS011;36794;51.212;6.980;2022-11-20T07:57:55;24.37;;;14.90;;
50821;SDS011;36794;51.212;6.980;2022-11-20T08:00:21;23.07;;;15.13;;
50821;SDS011;36794;51.212;6.980;2022-11-20T08:02:50;24.57;;;15.17;;
50821;SDS011;36794;51.212;6.980;2022-11-20T08:05:16;25.23;;;15.20;;
50821;SDS011;36794;51.212;6.980;2022-11-20T08:07:42;23.20;;;14.10;;
50821;SDS011;36794;51.212;6.980;2022-11-20T08:10:09;21.70;;;13.10;;
50821;SDS011;36794;51.212;6.980;2022-11-20T08:12:36;21.83;;;13.60;;
50821;SDS011;36794;51.212;6.980;2022-11-20T08:15:20;17.05;;;10.63;;
50821;SDS011;36794;51.212;6.980;2022-11-20T08:17:46;19.37;;;12.83;;
50821;SDS011;36794;51.212;6.980;2022-11-20T08:20:12;22.63;;;13.37;;
50821;SDS011;36794;51.212;6.980;2022-11-20T08:22:38;20.17;;;13.17;;
50821;SDS011;36794;51.212;6.980;2022-11-20T08:25:04;24.23;;;14.73;;
50821;SDS011;36794;51.212;6.980;2022-11-20T08:27:31;21.77;;;14.53;;
50821;SDS011;36794;51.212;6.980;2022-11-20T08:29:57;22.53;;;14.73;;
50821;SDS011;36794;51.212;6.980;2022-11-20T08:32:23;23.20;;;15.10;;
50821;SDS011;36794;51.212;6.980;2022-11-20T08:34:49;21.63;;;13.93;;
50821;SDS011;36794;51.212;6.980;2022-11-20T08:37:15;21.33;;;13.93;;
50821;SDS011;36794;51.212;6.980;2022-11-20T08:39:41;20.97;;;12.97;;
50821;SDS011;36794;51.212;6.980;2022-11-20T08:42:07;23.20;;;13.70;;
50821;SDS011;36794;51.212;6.980;2022-11-20T08:44:33;21.57;;;13.90;;
50821;SDS011;36794;51.212;6.980;2022-11-20T08:46:59;22.53;;;14.97;;
50821;SDS011;36794;51.212;6.980;2022-11-20T08:49:25;19.97;;;13.13;;
50821;SDS011;36794;51.212;6.980;2022-11-20T08:51:51;24.63;;;14.47;;
50821;SDS011;36794;51.212;6.980;2022-11-20T08:54:20;20.97;;;13.40;;
50821;SDS011;36794;51.212;6.980;2022-11-20T08:56:47;21.43;;;13.37;;
50821;SDS011;36794;51.212;6.980;2022-11-20T08:59:13;25.87;;;14.17;;
50821;SDS011;36794;51.212;6.980;2022-11-20T09:01:39;20.13;;;12.80;;
50821;SDS011;36794;51.212;6.980;2022-11-20T09:04:04;20.23;;;12.97;;
50821;SDS011;36794;51.212;6.980;2022-11-20T09:06:30;18.97;;;12.63;;
50821;SDS011;36794;51.212;6.980;2022-11-20T09:08:56;20.87;;;12.33;;
50821;SDS011;36794;51.212;6.980;2022-11-20T09:11:22;18.83;;;11.67;;
50821;SDS011;36794;51.212;6.980;2022-11-20T09:13:48;20.17;;;12.77;;
50821;SDS011;36794;51.212;6.980;2022-11-20T09:16:14;18.93;;;12.77;;
50821;SDS011;36794;51.212;6.980;2022-11-20T09:18:40;23.43;;;12.60;;
50821;SDS011;36794;51.212;6.980;2022-11-20T09:21:09;16.17;;;10.97;;
50821;SDS011;36794;51.212;6.980;2022-11-20T09:23:36;18.47;;;11.70;;
50821;SDS011;36794;51.212;6.980;2022-11-20T09:26:06;16.90;;;11.33;;
50821;SDS011;36794;51.212;6.980;2022-11-20T09:28:32;18.60;;;11.00;;
50821;SDS011;36794;51.212;6.980;2022-11-20T09:30:59;16.90;;;11.00;;
50821;SDS011;36794;51.212;6.980;2022-11-20T09:33:25;16.20;;;9.93;;
50821;SDS011;36794;51.212;6.980;2022-11-20T09:35:51;17.90;;;10.10;;
50821;SDS011;36794;51.212;6.980;2022-11-20T09:38:17;17.93;;;9.90;;
50821;SDS011;36794;51.212;6.980;2022-11-20T09:40:45;15.13;;;10.30;;
50821;SDS011;36794;51.212;6.980;2022-11-20T09:43:15;17.13;;;10.03;;
50821;SDS011;36794;51.212;6.980;2022-11-20T09:45:47;15.40;;;10.33;;
50821;SDS011;36794;51.212;6.980;2022-11-20T09:55:49;19.70;;;12.30;;
50821;SDS011;36794;51.212;6.980;2022-11-20T09:58:38;22.57;;;14.27;;
50821;SDS011;36794;51.212;6.980;2022-11-20T10:01:05;23.03;;;14.13;;
50821;SDS011;36794;51.212;6.980;2022-11-20T10:03:41;23.20;;;14.40;;
50821;SDS011;36794;51.212;6.980;2022-11-20T10:06:11;24.90;;;14.57;;
50821;SDS011;36794;51.212;6.980;2022-11-20T10:08:43;24.37;;;14.63;;
50821;SDS011;36794;51.212;6.980;2022-11-20T10:13:49;25.37;;;15.10;;
50821;SDS011;36794;51.212;6.980;2022-11-20T10:18:54;24.00;;;14.47;;
50821;SDS011;36794;51.212;6.980;2022-11-20T10:21:26;24.50;;;15.07;;
50821;SDS011;36794;51.212;6.980;2022-11-20T10:26:55;21.08;;;10.60;;
50821;SDS011;36794;51.212;6.980;2022-11-20T10:29:35;22.93;;;14.03;;
50821;SDS011;36794;51.212;6.980;2022-11-20T10:32:03;22.57;;;13.53;;
50821;SDS011;36794;51.212;6.980;2022-11-20T10:34:32;22.23;;;13.73;;
50821;SDS011;36794;51.212;6.980;2022-11-20T10:37:01;21.27;;;14.03;;
50821;SDS011;36794;51.212;6.980;2022-11-20T10:39:32;22.77;;;13.47;;
50821;SDS011;36794;51.212;6.980;2022-11-20T10:41:59;23.17;;;13.70;;
50821;SDS011;36794;51.212;6.980;2022-11-20T10:44:27;21.20;;;12.53;;
50821;SDS011;36794;51.212;6.980;2022-11-20T10:47:16;21.57;;;13.07;;
50821;SDS011;36794;51.212;6.980;2022-11-20T10:49:43;19.77;;;13.23;;
50821;SDS011;36794;51.212;6.980;2022-11-20T10:52:13;24.27;;;14.07;;
50821;SDS011;36794;51.212;6.980;2022-11-20T10:57:19;21.23;;;13.10;;
50821;SDS011;36794;51.212;6.980;2022-11-20T10:59:54;27.67;;;14.60;;
50821;SDS011;36794;51.212;6.980;2022-11-20T11:02:22;21.87;;;13.43;;
50821;SDS011;36794;51.212;6.980;2022-11-20T11:04:52;26.23;;;14.47;;
50821;SDS011;36794;51.212;6.980;2022-11-20T11:07:30;21.67;;;12.47;;
50821;SDS011;36794;51.212;6.980;2022-11-20T11:09:59;19.60;;;12.67;;
50821;SDS011;36794;51.212;6.980;2022-11-20T11:12:25;22.63;;;12.67;;
50821;SDS011;36794;51.212;6.980;2022-11-20T11:14:53;24.20;;;14.23;;
50821;SDS011;36794;51.212;6.980;2022-11-20T11:19:45;23.97;;;14.20;;
50821;SDS011;36794;51.212;6.980;2022-11-20T11:22:21;23.30;;;13.77;;
50821;SDS011;36794;51.212;6.980;2022-11-20T11:24:51;23.57;;;14.40;;
50821;SDS011;36794;51.212;6.980;2022-11-20T11:27:17;24.77;;;15.33;;
50821;SDS011;36794;51.212;6.980;2022-11-20T11:29:43;22.70;;;14.63;;
50821;SDS011;36794;51.212;6.980;2022-11-20T11:32:19;24.03;;;15.00;;
50821;SDS011;36794;51.212;6.980;2022-11-20T11:34:59;25.23;;;14.73;;
50821;SDS011;36794;51.212;6.980;2022-11-20T11:37:25;23.30;;;13.80;;
50821;SDS011;36794;51.212;6.980;2022-11-20T11:39:53;26.93;;;14.97;;
50821;SDS011;36794;51.212;6.980;2022-11-20T11:42:20;21.77;;;14.67;;
50821;SDS011;36794;51.212;6.980;2022-11-20T11:44:46;27.13;;;15.27;;
50821;SDS011;36794;51.212;6.980;2022-11-20T11:52:42;24.83;;;15.33;;
50821;SDS011;36794;51.212;6.980;2022-11-20T11:55:12;23.58;;;14.40;;
50821;SDS011;36794;51.212;6.980;2022-11-20T12:00:09;27.23;;;15.00;;
50821;SDS011;36794;51.212;6.980;2022-11-20T12:02:37;25.87;;;15.73;;
50821;SDS011;36794;51.212;6.980;2022-11-20T12:07:43;23.67;;;14.70;;
50821;SDS011;36794;51.212;6.980;2022-11-20T12:10:15;25.00;;;15.17;;
50821;SDS011;36794;51.212;6.980;2022-11-20T12:12:44;23.30;;;14.67;;
50821;SDS011;36794;51.212;6.980;2022-11-20T12:15:10;22.40;;;13.90;;
50821;SDS011;36794;51.212;6.980;2022-11-20T12:17:37;23.93;;;14.87;;
50821;SDS011;36794;51.212;6.980;2022-11-20T12:20:05;28.47;;;15.27;;
50821;SDS011;36794;51.212;6.980;2022-11-20T12:27:36;24.93;;;15.43;;
50821;SDS011;36794;51.212;6.980;2022-11-20T12:35:01;25.10;;;14.53;;
50821;SDS011;36794;51.212;6.980;2022-11-20T12:37:37;26.63;;;16.03;;
50821;SDS011;36794;51.212;6.980;2022-11-20T12:40:14;27.13;;;15.27;;
50821;SDS011;36794;51.212;6.980;2022-11-20T12:42:44;25.20;;;16.20;;
50821;SDS011;36794;51.212;6.980;2022-11-20T12:48:25;24.13;;;15.23;;
50821;SDS011;36794;51.212;6.980;2022-11-20T12:51:09;28.10;;;16.10;;
50821;SDS011;36794;51.212;6.980;2022-11-20T12:53:49;27.60;;;15.83;;
50821;SDS011;36794;51.212;6.980;2022-11-20T12:59:01;25.90;;;16.03;;
50821;SDS011;36794;51.212;6.980;2022-11-20T13:01:37;29.33;;;16.47;;
50821;SDS011;36794;51.212;6.980;2022-11-20T13:06:49;19.40;;;12.52;;
50821;SDS011;36794;51.212;6.980;2022-11-20T13:09:16;27.30;;;15.47;;
50821;SDS011;36794;51.212;6.980;2022-11-20T13:19:36;32.33;;;18.30;;
50821;SDS011;36794;51.212;6.980;2022-11-20T13:22:02;37.13;;;20.23;;
50821;SDS011;36794;51.212;6.980;2022-11-20T13:24:29;37.80;;;20.97;;
50821;SDS011;36794;51.212;6.980;2022-11-20T13:29:34;37.00;;;20.67;;
50821;SDS011;36794;51.212;6.980;2022-11-20T13:32:12;38.53;;;20.33;;
50821;SDS011;36794;51.212;6.980;2022-11-20T13:34:39;36.07;;;19.83;;
50821;SDS011;36794;51.212;6.980;2022-11-20T13:37:23;33.10;;;19.73;;
50821;SDS011;36794;51.212;6.980;2022-11-20T13:39:50;38.73;;;20.73;;
50821;SDS011;36794;51.212;6.980;2022-11-20T13:44:47;35.87;;;21.00;;
50821;SDS011;36794;51.212;6.980;2022-11-20T13:47:23;34.57;;;19.73;;
50821;SDS011;36794;51.212;6.980;2022-11-20T13:49:50;35.47;;;20.03;;
50821;SDS011;36794;51.212;6.980;2022-11-20T13:57:38;38.43;;;18.30;;
50821;SDS011;36794;51.212;6.980;2022-11-20T14:00:20;37.70;;;20.57;;
50821;SDS011;36794;51.212;6.980;2022-11-20T14:02:51;38.00;;;20.83;;
50821;SDS011;36794;51.212;6.980;2022-11-20T14:05:23;35.93;;;20.20;;
50821;SDS011;36794;51.212;6.980;2022-11-20T14:07:49;39.57;;;20.17;;
50821;SDS011;36794;51.212;6.980;2022-11-20T14:10:26;40.37;;;23.80;;
50821;SDS011;36794;51.212;6.980;2022-11-20T14:12:52;41.23;;;21.73;;
50821;SDS011;36794;51.212;6.980;2022-11-20T14:15:34;42.67;;;22.60;;
50821;SDS011;36794;51.212;6.980;2022-11-20T14:18:10;42.03;;;22.37;;
50821;SDS011;36794;51.212;6.980;2022-11-20T14:20:37;42.80;;;23.07;;
50821;SDS011;36794;51.212;6.980;2022-11-20T14:23:03;45.73;;;26.27;;
50821;SDS011;36794;51.212;6.980;2022-11-20T14:25:30;43.03;;;23.07;;
50821;SDS011;36794;51.212;6.980;2022-11-20T14:27:57;44.73;;;21.80;;
50821;SDS011;36794;51.212;6.980;2022-11-20T14:30:25;44.57;;;23.07;;
50821;SDS011;36794;51.212;6.980;2022-11-20T14:32:52;43.93;;;23.90;;
50821;SDS011;36794;51.212;6.980;2022-11-20T14:35:21;46.60;;;23.63;;
50821;SDS011;36794;51.212;6.980;2022-11-20T14:37:48;40.43;;;22.07;;
50821;SDS011;36794;51.212;6.980;2022-11-20T14:40:27;52.63;;;29.03;;
50821;SDS011;36794;51.212;6.980;2022-11-20T14:42:54;39.67;;;22.40;;
50821;SDS011;36794;51.212;6.980;2022-11-20T14:45:20;44.73;;;23.13;;
50821;SDS011;36794;51.212;6.980;2022-11-20T14:47:46;42.17;;;23.23;;
50821;SDS011;36794;51.212;6.980;2022-11-20T14:50:16;40.63;;;21.80;;
50821;SDS011;36794;51.212;6.980;2022-11-20T14:52:56;38.37;;;21.83;;
50821;SDS011;36794;51.212;6.980;2022-11-20T14:55:32;35.27;;;19.63;;
50821;SDS011;36794;51.212;6.980;2022-11-20T14:58:01;38.47;;;21.17;;
50821;SDS011;36794;51.212;6.980;2022-11-20T15:00:27;38.07;;;21.47;;
50821;SDS011;36794;51.212;6.980;2022-11-20T15:02:54;39.20;;;21.57;;
50821;SDS011;36794;51.212;6.980;2022-11-20T15:05:21;34.97;;;19.83;;
50821;SDS011;36794;51.212;6.980;2022-11-20T15:07:49;36.07;;;19.33;;
50821;SDS011;36794;51.212;6.980;2022-11-20T15:10:24;36.57;;;20.20;;
50821;SDS011;36794;51.212;6.980;2022-11-20T15:15:21;38.53;;;20.37;;
50821;SDS011;36794;51.212;6.980;2022-11-20T15:17:49;33.87;;;19.00;;
50821;SDS011;36794;51.212;6.980;2022-11-20T15:20:17;36.60;;;19.77;;
50821;SDS011;36794;51.212;6.980;2022-11-20T15:22:43;34.00;;;19.17;;
50821;SDS011;36794;51.212;6.980;2022-11-20T15:25:13;36.23;;;19.83;;
50821;SDS011;36794;51.212;6.980;2022-11-20T15:27:40;33.37;;;18.47;;
50821;SDS011;36794;51.212;6.980;2022-11-20T15:30:16;33.60;;;17.67;;
50821;SDS011;36794;51.212;6.980;2022-11-20T15:32:42;32.70;;;17.63;;
50821;SDS011;36794;51.212;6.980;2022-11-20T15:35:10;32.63;;;18.40;;
50821;SDS011;36794;51.212;6.980;2022-11-20T15:44:09;28.83;;;17.23;;
50821;SDS011;36794;51.212;6.980;2022-11-20T15:46:39;37.10;;;18.00;;
50821;SDS011;36794;51.212;6.980;2022-11-20T15:49:10;31.43;;;17.23;;